sensor_id;sensor_type;location;lat;lon;timestamp;P1;durP1;ratioP1;P2;durP2;ratioP2
24034;SDS011;12242;50.952;4.678;2022-11-20T18:16:07;5.90;;;1.10;;
24034;SDS011;12242;50.952;4.678;2022-11-20T18:18:34;9.20;;;1.20;;
24034;SDS011;12242;50.952;4.678;2022-11-20T18:21:01;6.97;;;1.17;;
24034;SDS011;12242;50.952;4.678;2022-11-20T18:23:29;5.93;;;0.93;;
24034;SDS011;12242;50.952;4.678;2022-11-20T18:25:59;9.80;;;1.08;;
24034;SDS011;12242;50.952;4.678;2022-11-20T18:28:27;7.70;;;0.98;;
24034;SDS011;12242;50.952;4.678;2022-11-20T18:30:54;7.78;;;1.77;;
24034;SDS011;12242;50.952;4.678;2022-11-20T18:33:21;7.28;;;1.40;;
24034;SDS011;12242;50.952;4.678;2022-11-20T18:35:54;7.55;;;1.30;;
24034;SDS011;12242;50.952;4.678;2022-11-20T18:38:24;4.30;;;1.25;;
24034;SDS011;12242;50.952;4.678;2022-11-20T18:40:52;7.28;;;1.02;;
24034;SDS011;12242;50.952;4.678;2022-11-20T18:43:19;9.27;;;1.23;;
24034;SDS011;12242;50.952;4.678;2022-11-20T18:46:05;5.68;;;1.33;;
24034;SDS011;12242;50.952;4.678;2022-11-20T18:48:32;7.63;;;1.40;;
24034;SDS011;12242;50.952;4.678;2022-11-20T18:51:06;4.95;;;1.00;;
24034;SDS011;12242;50.952;4.678;2022-11-20T18:53:34;6.95;;;1.33;;
24034;SDS011;12242;50.952;4.678;2022-11-20T18:56:03;4.95;;;2.08;;
24034;SDS011;12242;50.952;4.678;2022-11-20T18:58:31;7.75;;;1.70;;
24034;SDS011;12242;50.952;4.678;2022-11-20T19:01:07;9.52;;;1.90;;
24034;SDS011;12242;50.952;4.678;2022-11-20T19:03:34;8.10;;;2.38;;
24034;SDS011;12242;50.952;4.678;2022-11-20T19:06:02;10.65;;;2.45;;
24034;SDS011;12242;50.952;4.678;2022-11-20T19:08:29;14.48;;;2.53;;
24034;SDS011;12242;50.952;4.678;2022-11-20T19:11:06;14.60;;;2.53;;
24034;SDS011;12242;50.952;4.678;2022-11-20T19:13:35;10.75;;;2.38;;
24034;SDS011;12242;50.952;4.678;2022-11-20T19:18:32;15.93;;;3.00;;
24034;SDS011;12242;50.952;4.678;2022-11-20T19:21:06;16.92;;;3.10;;
24034;SDS011;12242;50.952;4.678;2022-11-20T19:23:35;12.60;;;3.35;;
24034;SDS011;12242;50.952;4.678;2022-11-20T19:26:02;9.27;;;2.75;;
24034;SDS011;12242;50.952;4.678;2022-11-20T19:28:34;11.75;;;3.08;;
24034;SDS011;12242;50.952;4.678;2022-11-20T19:31:06;17.23;;;3.15;;
24034;SDS011;12242;50.952;4.678;2022-11-20T19:33:37;11.55;;;2.58;;
24034;SDS011;12242;50.952;4.678;2022-11-20T19:36:16;13.57;;;3.10;;
24034;SDS011;12242;50.952;4.678;2022-11-20T19:38:45;14.38;;;2.92;;
24034;SDS011;12242;50.952;4.678;2022-11-20T19:41:17;14.15;;;3.08;;
24034;SDS011;12242;50.952;4.678;2022-11-20T19:43:46;12.80;;;2.90;;
24034;SDS011;12242;50.952;4.678;2022-11-20T19:46:16;16.67;;;3.13;;
24034;SDS011;12242;50.952;4.678;2022-11-20T19:48:44;10.75;;;2.58;;
24034;SDS011;12242;50.952;4.678;2022-11-20T19:51:12;7.60;;;2.58;;
24034;SDS011;12242;50.952;4.678;2022-11-20T19:53:44;11.27;;;2.83;;
24034;SDS011;12242;50.952;4.678;2022-11-20T19:56:16;15.75;;;2.83;;
24034;SDS011;12242;50.952;4.678;2022-11-20T19:58:44;14.77;;;2.60;;
24034;SDS011;12242;50.952;4.678;2022-11-20T20:01:13;11.35;;;2.90;;
24034;SDS011;12242;50.952;4.678;2022-11-20T20:03:46;17.75;;;2.90;;
24034;SDS011;12242;50.952;4.678;2022-11-20T20:06:21;12.23;;;2.47;;
24034;SDS011;12242;50.952;4.678;2022-11-20T20:09:01;17.92;;;2.70;;
24034;SDS011;12242;50.952;4.678;2022-11-20T20:11:32;11.68;;;2.85;;
24034;SDS011;12242;50.952;4.678;2022-11-20T20:14:03;14.13;;;2.95;;
24034;SDS011;12242;50.952;4.678;2022-11-20T20:16:32;14.00;;;2.90;;
24034;SDS011;12242;50.952;4.678;2022-11-20T20:19:01;22.05;;;3.67;;
24034;SDS011;12242;50.952;4.678;2022-11-20T20:21:30;17.83;;;2.90;;
24034;SDS011;12242;50.952;4.678;2022-11-20T20:24:00;17.33;;;3.60;;
24034;SDS011;12242;50.952;4.678;2022-11-20T20:26:31;14.63;;;3.15;;
24034;SDS011;12242;50.952;4.678;2022-11-20T20:29:01;14.05;;;4.40;;
24034;SDS011;12242;50.952;4.678;2022-11-20T20:31:30;16.00;;;3.67;;
24034;SDS011;12242;50.952;4.678;2022-11-20T20:33:59;16.08;;;3.40;;
24034;SDS011;12242;50.952;4.678;2022-11-20T20:36:28;13.88;;;2.33;;
24034;SDS011;12242;50.952;4.678;2022-11-20T20:38:57;14.73;;;2.97;;
24034;SDS011;12242;50.952;4.678;2022-11-20T20:41:25;17.05;;;3.15;;
24034;SDS011;12242;50.952;4.678;2022-11-20T20:43:53;9.90;;;2.70;;
24034;SDS011;12242;50.952;4.678;2022-11-20T20:46:39;13.88;;;2.70;;
24034;SDS011;12242;50.952;4.678;2022-11-20T20:49:07;14.60;;;2.83;;
24034;SDS011;12242;50.952;4.678;2022-11-20T20:51:36;13.75;;;2.63;;
24034;SDS011;12242;50.952;4.678;2022-11-20T20:54:03;11.07;;;2.42;;
24034;SDS011;12242;50.952;4.678;2022-11-20T20:56:31;15.05;;;2.88;;
24034;SDS011;12242;50.952;4.678;2022-11-20T20:58:58;12.48;;;2.90;;
24034;SDS011;12242;50.952;4.678;2022-11-20T21:01:26;15.68;;;3.00;;
24034;SDS011;12242;50.952;4.678;2022-11-20T21:03:55;11.38;;;2.40;;
24034;SDS011;12242;50.952;4.678;2022-11-20T21:06:25;15.35;;;2.67;;
24034;SDS011;12242;50.952;4.678;2022-11-20T21:08:53;11.55;;;2.67;;
24034;SDS011;12242;50.952;4.678;2022-11-20T21:11:22;10.07;;;2.63;;
24034;SDS011;12242;50.952;4.678;2022-11-20T21:13:50;13.80;;;2.20;;
24034;SDS011;12242;50.952;4.678;2022-11-20T21:16:19;15.60;;;2.70;;
24034;SDS011;12242;50.952;4.678;2022-11-20T21:18:48;14.55;;;2.50;;
24034;SDS011;12242;50.952;4.678;2022-11-20T21:21:16;7.97;;;2.30;;
24034;SDS011;12242;50.952;4.678;2022-11-20T21:24:02;7.88;;;2.25;;
24034;SDS011;12242;50.952;4.678;2022-11-20T21:26:30;8.60;;;2.15;;
24034;SDS011;12242;50.952;4.678;2022-11-20T21:28:58;12.68;;;2.42;;
24034;SDS011;12242;50.952;4.678;2022-11-20T21:31:26;11.68;;;3.00;;
24034;SDS011;12242;50.952;4.678;2022-11-20T21:33:55;10.25;;;2.53;;
24034;SDS011;12242;50.952;4.678;2022-11-20T21:36:24;13.10;;;2.42;;
24034;SDS011;12242;50.952;4.678;2022-11-20T21:38:53;11.30;;;2.28;;
24034;SDS011;12242;50.952;4.678;2022-11-20T21:41:22;14.07;;;2.85;;
24034;SDS011;12242;50.952;4.678;2022-11-20T21:43:52;15.77;;;2.38;;
24034;SDS011;12242;50.952;4.678;2022-11-20T21:46:42;13.15;;;2.50;;
24034;SDS011;12242;50.952;4.678;2022-11-20T21:49:11;18.20;;;2.65;;
24034;SDS011;12242;50.952;4.678;2022-11-20T21:51:42;11.68;;;2.70;;
24034;SDS011;12242;50.952;4.678;2022-11-20T21:54:09;11.93;;;2.33;;
24034;SDS011;12242;50.952;4.678;2022-11-20T21:56:37;15.50;;;2.97;;
24034;SDS011;12242;50.952;4.678;2022-11-20T21:59:09;10.05;;;2.33;;
24034;SDS011;12242;50.952;4.678;2022-11-20T22:01:37;10.90;;;2.43;;
24034;SDS011;12242;50.952;4.678;2022-11-20T22:04:05;15.13;;;3.08;;
24034;SDS011;12242;50.952;4.678;2022-11-20T22:06:35;12.50;;;2.60;;
24034;SDS011;12242;50.952;4.678;2022-11-20T22:09:02;9.07;;;2.08;;
24034;SDS011;12242;50.952;4.678;2022-11-20T22:11:32;7.20;;;2.33;;
24034;SDS011;12242;50.952;4.678;2022-11-20T22:14:00;15.82;;;2.42;;
24034;SDS011;12242;50.952;4.678;2022-11-20T22:16:46;10.70;;;2.63;;
24034;SDS011;12242;50.952;4.678;2022-11-20T22:19:16;6.82;;;2.05;;
24034;SDS011;12242;50.952;4.678;2022-11-20T22:21:44;12.82;;;2.63;;
24034;SDS011;12242;50.952;4.678;2022-11-20T22:24:13;12.65;;;2.75;;
24034;SDS011;12242;50.952;4.678;2022-11-20T22:26:45;13.10;;;3.17;;
24034;SDS011;12242;50.952;4.678;2022-11-20T22:29:17;9.00;;;2.28;;
24034;SDS011;12242;50.952;4.678;2022-11-20T22:31:51;11.52;;;2.63;;
24034;SDS011;12242;50.952;4.678;2022-11-20T22:34:21;13.52;;;2.72;;
24034;SDS011;12242;50.952;4.678;2022-11-20T22:36:49;7.72;;;2.20;;
24034;SDS011;12242;50.952;4.678;2022-11-20T22:39:17;10.02;;;2.17;;
24034;SDS011;12242;50.952;4.678;2022-11-20T22:41:44;16.50;;;2.40;;
24034;SDS011;12242;50.952;4.678;2022-11-20T22:44:12;12.18;;;2.72;;
24034;SDS011;12242;50.952;4.678;2022-11-20T22:46:41;13.90;;;2.50;;
24034;SDS011;12242;50.952;4.678;2022-11-20T22:49:09;10.18;;;2.70;;
24034;SDS011;12242;50.952;4.678;2022-11-20T22:51:38;13.88;;;2.60;;
24034;SDS011;12242;50.952;4.678;2022-11-20T22:54:06;10.18;;;2.20;;
24034;SDS011;12242;50.952;4.678;2022-11-20T22:56:36;7.75;;;1.95;;
24034;SDS011;12242;50.952;4.678;2022-11-20T22:59:03;8.23;;;2.13;;
24034;SDS011;12242;50.952;4.678;2022-11-20T23:01:34;7.72;;;2.47;;
24034;SDS011;12242;50.952;4.678;2022-11-20T23:06:34;9.95;;;1.95;;
24034;SDS011;12242;50.952;4.678;2022-11-20T23:09:05;8.55;;;1.85;;
24034;SDS011;12242;50.952;4.678;2022-11-20T23:11:34;6.72;;;1.70;;
24034;SDS011;12242;50.952;4.678;2022-11-20T23:14:03;13.63;;;2.10;;
24034;SDS011;12242;50.952;4.678;2022-11-20T23:16:32;6.47;;;2.10;;
24034;SDS011;12242;50.952;4.678;2022-11-20T23:19:02;8.25;;;1.88;;
24034;SDS011;12242;50.952;4.678;2022-11-20T23:21:32;9.98;;;2.20;;
24034;SDS011;12242;50.952;4.678;2022-11-20T23:24:01;5.38;;;1.90;;
24034;SDS011;12242;50.952;4.678;2022-11-20T23:26:30;4.35;;;1.38;;
24034;SDS011;12242;50.952;4.678;2022-11-20T23:28:59;8.20;;;1.48;;
24034;SDS011;12242;50.952;4.678;2022-11-20T23:31:28;6.00;;;1.50;;
24034;SDS011;12242;50.952;4.678;2022-11-20T23:33:57;8.55;;;1.65;;
24034;SDS011;12242;50.952;4.678;2022-11-20T23:36:25;7.85;;;1.45;;
24034;SDS011;12242;50.952;4.678;2022-11-20T23:38:53;5.70;;;1.60;;
24034;SDS011;12242;50.952;4.678;2022-11-20T23:41:20;9.95;;;1.77;;
24034;SDS011;12242;50.952;4.678;2022-11-20T23:43:47;6.25;;;1.40;;
24034;SDS011;12242;50.952;4.678;2022-11-20T23:46:15;9.25;;;1.52;;
24034;SDS011;12242;50.952;4.678;2022-11-20T23:48:42;3.65;;;1.13;;
24034;SDS011;12242;50.952;4.678;2022-11-20T23:51:11;2.85;;;0.73;;
24034;SDS011;12242;50.952;4.678;2022-11-20T23:53:38;4.00;;;0.60;;
24034;SDS011;12242;50.952;4.678;2022-11-20T23:56:09;3.95;;;0.50;;
24034;SDS011;12242;50.952;4.678;2022-11-20T23:58:37;2.72;;;0.40;;
